Time;durP1;ratioP1;P1;durP2;ratioP2;P2;SDS_P1;SDS_P2;PMS_P1;PMS_P2;Temp;Humidity;BMP_temperature;BMP_pressure;BME280_temperature;BME280_humidity;BME280_pressure;Samples;Min_cycle;Max_cycle;Signal;HPM_P1;HPM_P2
2023/06/30 00:01:36;;;;;;;8.98;2.25;;;;;;;21.66;48.64;99387.69;4371332;32;33789;-63
2023/06/30 00:04:04;;;;;;;2.90;1.67;;;;;;;21.70;48.55;99386.28;4372979;32;33985;-62
2023/06/30 00:06:32;;;;;;;3.50;2.22;;;;;;;21.74;48.39;99386.75;4373782;32;34300;-62
2023/06/30 00:09:00;;;;;;;3.55;1.80;;;;;;;21.75;48.36;99383.81;4372441;32;33353;-62
2023/06/30 00:11:27;;;;;;;3.45;2.03;;;;;;;21.66;48.67;99376.81;4374682;32;33602;-62
2023/06/30 00:13:55;;;;;;;3.95;2.33;;;;;;;21.71;48.55;99382.53;4373526;32;35187;-63
2023/06/30 00:16:22;;;;;;;3.65;1.67;;;;;;;21.71;48.55;99378.97;4373068;32;34595;-63
2023/06/30 00:18:50;;;;;;;6.80;2.50;;;;;;;21.76;48.35;99371.03;4372480;32;33816;-62
2023/06/30 00:21:18;;;;;;;2.83;1.70;;;;;;;21.77;48.23;99376.28;4372070;32;33599;-62
2023/06/30 00:23:46;;;;;;;4.57;2.17;;;;;;;21.76;48.33;99369.13;4372672;32;35011;-62
2023/06/30 00:26:14;;;;;;;3.55;1.87;;;;;;;21.79;48.27;99376.09;4374244;32;33720;-62
2023/06/30 00:28:41;;;;;;;4.43;2.10;;;;;;;21.73;48.44;99371.41;4369569;32;34133;-62
2023/06/30 00:31:09;;;;;;;4.05;2.17;;;;;;;21.60;48.78;99372.12;4372473;32;34749;-62
2023/06/30 00:33:37;;;;;;;4.97;1.92;;;;;;;21.46;49.12;99367.63;4372011;32;33812;-62
2023/06/30 00:36:04;;;;;;;3.58;2.00;;;;;;;21.64;48.64;99365.28;4373076;32;33945;-62
2023/06/30 00:38:32;;;;;;;4.55;2.22;;;;;;;21.50;48.75;99368.91;4372444;32;33243;-62
2023/06/30 00:40:59;;;;;;;4.90;1.58;;;;;;;21.52;48.57;99370.41;4372492;32;33513;-62
2023/06/30 00:43:27;;;;;;;4.22;2.08;;;;;;;21.46;48.75;99368.44;4371496;32;33926;-62
2023/06/30 00:45:55;;;;;;;6.03;2.42;;;;;;;21.21;49.45;99367.94;4373317;32;34606;-62
2023/06/30 00:48:23;;;;;;;6.80;1.95;;;;;;;21.30;49.22;99369.50;4373447;32;33230;-62
2023/06/30 00:50:50;;;;;;;3.67;1.92;;;;;;;21.27;49.23;99360.87;4358277;32;33784;-62
2023/06/30 00:53:18;;;;;;;6.32;2.28;;;;;;;21.28;49.07;99351.69;4373176;32;34185;-62
2023/06/30 00:55:47;;;;;;;3.72;1.80;;;;;;;21.28;49.08;99352.50;4356315;32;34265;-62
2023/06/30 00:58:14;;;;;;;4.10;2.22;;;;;;;21.15;49.48;99363.25;4371072;32;34659;-62
2023/06/30 01:00:42;;;;;;;2.78;1.67;;;;;;;21.26;49.25;99359.22;4371800;32;34614;-62
2023/06/30 01:03:52;;;;;;;4.28;2.12;;;;;;;21.33;49.04;99347.34;4341602;32;34859;-62
2023/06/30 01:06:31;;;;;;;4.07;2.08;;;;;;;21.27;49.23;99358.16;4328445;33;34351;-62
2023/06/30 01:09:04;;;;;;;4.95;2.25;;;;;;;21.24;49.37;99353.94;4338047;33;33258;-62
2023/06/30 01:11:32;;;;;;;3.08;2.03;;;;;;;21.14;49.55;99351.53;4341402;33;33245;-62
2023/06/30 01:14:01;;;;;;;4.00;2.08;;;;;;;21.21;49.14;99346.16;4338298;32;35571;-62
2023/06/30 01:16:29;;;;;;;4.37;2.03;;;;;;;21.10;49.43;99347.53;4328305;33;34916;-62
2023/06/30 01:18:58;;;;;;;3.87;2.25;;;;;;;21.15;49.11;99341.50;4328300;33;33430;-62
2023/06/30 01:21:28;;;;;;;3.37;1.65;;;;;;;21.14;49.01;99342.53;4340977;32;33750;-62
2023/06/30 01:24:04;;;;;;;4.40;2.00;;;;;;;20.99;49.43;99353.44;4338637;33;34947;-62
2023/06/30 01:26:34;;;;;;;2.90;1.87;;;;;;;21.03;49.58;99343.91;4342620;33;34170;-62
2023/06/30 01:29:03;;;;;;;2.78;1.75;;;;;;;20.93;49.85;99346.91;4335253;32;33451;-62
2023/06/30 01:31:31;;;;;;;3.28;1.70;;;;;;;21.05;49.57;99349.12;4322024;33;33549;-62
2023/06/30 01:33:59;;;;;;;4.70;1.95;;;;;;;21.03;49.60;99348.50;4350087;32;34856;-62
2023/06/30 01:36:27;;;;;;;2.60;1.52;;;;;;;21.04;49.71;99344.72;4369131;32;34163;-63
2023/06/30 01:38:54;;;;;;;4.85;1.75;;;;;;;20.96;49.84;99339.38;4370829;32;34446;-62
2023/06/30 01:41:22;;;;;;;2.67;1.77;;;;;;;20.82;50.21;99341.97;4371411;32;33846;-62
2023/06/30 01:43:51;;;;;;;11.10;2.58;;;;;;;20.98;49.81;99340.91;4373667;32;34918;-62
2023/06/30 01:46:18;;;;;;;4.15;1.70;;;;;;;21.04;49.59;99331.97;4374853;32;34115;-62
2023/06/30 01:48:46;;;;;;;6.12;2.55;;;;;;;21.08;49.36;99340.59;4374023;32;33359;-63
2023/06/30 01:51:14;;;;;;;3.72;1.83;;;;;;;21.07;49.31;99342.47;4372581;32;33744;-62
2023/06/30 01:53:43;;;;;;;4.57;2.40;;;;;;;20.92;49.60;99338.94;4357879;32;33924;-62
2023/06/30 01:56:11;;;;;;;2.53;1.75;;;;;;;20.96;49.44;99339.38;4376497;32;34190;-62
2023/06/30 01:58:39;;;;;;;4.90;1.80;;;;;;;21.03;49.22;99337.63;4372742;32;33678;-62
2023/06/30 02:01:06;;;;;;;4.32;1.77;;;;;;;21.03;49.26;99335.72;4372320;32;34622;-62
2023/06/30 02:03:34;;;;;;;3.70;1.95;;;;;;;20.91;49.70;99323.66;4373748;32;33571;-62
2023/06/30 02:06:03;;;;;;;2.85;1.77;;;;;;;20.96;49.50;99325.78;4370079;32;35723;-61
2023/06/30 02:08:30;;;;;;;2.92;1.60;;;;;;;20.99;49.42;99331.69;4375232;32;34520;-62
2023/06/30 02:10:58;;;;;;;5.90;1.75;;;;;;;20.99;49.40;99328.13;4372964;32;35024;-62
2023/06/30 02:13:26;;;;;;;2.45;1.42;;;;;;;21.05;49.10;99319.19;4371094;32;33667;-63
2023/06/30 02:15:54;;;;;;;3.35;1.75;;;;;;;20.93;49.44;99322.44;4373459;32;35156;-62
2023/06/30 02:18:22;;;;;;;7.53;1.62;;;;;;;20.97;49.35;99324.78;4371695;32;33454;-62
2023/06/30 02:20:49;;;;;;;4.12;2.20;;;;;;;20.94;49.39;99326.84;4361344;32;35051;-63
2023/06/30 02:23:17;;;;;;;3.37;1.73;;;;;;;21.01;49.12;99324.19;4374204;32;33820;-63
2023/06/30 02:25:45;;;;;;;3.17;1.65;;;;;;;21.03;48.96;99326.72;4374632;32;35753;-63
2023/06/30 02:28:13;;;;;;;4.05;2.35;;;;;;;21.02;48.81;99320.41;4373879;32;33730;-62
2023/06/30 02:30:41;;;;;;;2.35;1.48;;;;;;;21.02;48.83;99323.16;4372667;32;33879;-63
2023/06/30 02:33:08;;;;;;;6.72;2.22;;;;;;;20.98;49.05;99319.12;4371780;32;35250;-62
2023/06/30 02:35:36;;;;;;;3.83;1.92;;;;;;;20.67;49.98;99328.41;4372300;32;33934;-63
2023/06/30 02:38:04;;;;;;;5.53;1.98;;;;;;;20.90;49.34;99321.97;4368126;32;33308;-63
2023/06/30 02:40:32;;;;;;;6.15;2.67;;;;;;;20.94;49.38;99317.84;4372647;32;33837;-62
2023/06/30 02:43:00;;;;;;;5.28;1.75;;;;;;;20.92;49.53;99319.91;4370537;32;35042;-62
2023/06/30 02:45:28;;;;;;;5.03;1.90;;;;;;;20.91;49.46;99316.34;4373880;32;34005;-63
2023/06/30 02:47:56;;;;;;;2.28;1.50;;;;;;;20.95;49.39;99308.63;4375200;32;34517;-62
2023/06/30 02:50:30;;;;;;;4.43;2.12;;;;;;;21.01;49.04;99315.19;4372822;32;33535;-63
2023/06/30 02:52:59;;;;;;;2.28;1.55;;;;;;;21.04;48.94;99315.63;4369725;32;34016;-62
2023/06/30 02:55:27;;;;;;;4.30;2.20;;;;;;;20.96;49.26;99318.47;4368930;32;34631;-61
2023/06/30 02:57:56;;;;;;;4.97;2.08;;;;;;;20.94;49.24;99323.28;4372383;32;33329;-61
2023/06/30 03:00:24;;;;;;;3.47;2.03;;;;;;;20.93;49.29;99318.88;4375932;32;33829;-60
2023/06/30 03:02:52;;;;;;;2.83;2.05;;;;;;;20.88;49.41;99318.59;4370973;32;34313;-61
2023/06/30 03:05:20;;;;;;;6.95;2.00;;;;;;;20.88;49.39;99318.59;4372256;32;34129;-61
2023/06/30 03:07:48;;;;;;;2.70;1.48;;;;;;;20.82;49.47;99325.63;4373280;32;33533;-61
2023/06/30 03:10:17;;;;;;;3.60;2.22;;;;;;;20.78;49.66;99324.34;4373564;32;33327;-61
2023/06/30 03:12:45;;;;;;;4.68;2.17;;;;;;;20.74;49.77;99330.34;4374220;32;35057;-64
2023/06/30 03:15:13;;;;;;;2.78;1.73;;;;;;;20.75;49.70;99327.44;4373098;32;34819;-63
2023/06/30 03:17:41;;;;;;;4.53;1.90;;;;;;;20.74;49.78;99327.63;4374816;32;34377;-63
2023/06/30 03:20:11;;;;;;;2.85;1.67;;;;;;;20.65;50.09;99326.91;4384293;32;34078;-60
2023/06/30 03:22:40;;;;;;;2.97;1.75;;;;;;;20.72;49.95;99321.53;4374214;32;33951;-61
2023/06/30 03:25:08;;;;;;;3.00;1.80;;;;;;;20.75;49.93;99318.44;4372652;32;33903;-60
2023/06/30 03:27:36;;;;;;;11.12;1.52;;;;;;;20.79;49.90;99326.03;4370441;32;33200;-63
2023/06/30 03:30:04;;;;;;;3.72;1.58;;;;;;;20.80;50.04;99321.41;4373684;32;34475;-65
2023/06/30 03:32:33;;;;;;;2.92;1.33;;;;;;;20.79;50.21;99322.47;4357801;32;34263;-63
2023/06/30 03:35:02;;;;;;;2.65;1.50;;;;;;;20.65;50.47;99330.47;4370637;32;34862;-61
2023/06/30 03:37:31;;;;;;;2.72;1.70;;;;;;;20.81;50.16;99328.56;4364193;32;33720;-62
2023/06/30 03:40:05;;;;;;;2.92;1.92;;;;;;;20.91;49.82;99327.22;4374657;32;33665;-62
2023/06/30 03:42:33;;;;;;;3.12;1.58;;;;;;;20.96;49.77;99331.22;4372252;32;34967;-62
2023/06/30 03:45:00;;;;;;;5.00;1.85;;;;;;;21.06;49.48;99324.47;4372476;32;34244;-62
2023/06/30 03:47:30;;;;;;;3.92;1.98;;;;;;;21.14;49.26;99324.31;4371776;32;36334;-62
2023/06/30 03:49:58;;;;;;;5.95;1.90;;;;;;;21.27;49.06;99317.34;4373052;32;33610;-62
2023/06/30 03:52:26;;;;;;;3.60;1.65;;;;;;;21.38;48.92;99314.16;4375436;32;35458;-62
2023/06/30 03:54:54;;;;;;;21.52;2.92;;;;;;;21.49;48.62;99313.59;4373331;32;34026;-61
2023/06/30 03:57:22;;;;;;;5.25;1.90;;;;;;;21.58;48.27;99317.88;4372709;32;33178;-61
2023/06/30 03:59:49;;;;;;;5.80;2.20;;;;;;;21.66;47.88;99321.50;4373232;32;34811;-61
2023/06/30 04:02:17;;;;;;;6.18;2.10;;;;;;;21.59;48.03;99316.84;4365643;32;33928;-61
2023/06/30 04:04:45;;;;;;;4.07;1.67;;;;;;;21.60;48.21;99318.53;4373282;32;34269;-61
2023/06/30 04:07:13;;;;;;;2.70;1.62;;;;;;;21.68;48.15;99320.28;4366191;32;33405;-61
2023/06/30 04:09:40;;;;;;;4.18;2.25;;;;;;;21.77;48.07;99315.53;4363178;32;33785;-61
2023/06/30 04:12:08;;;;;;;6.93;2.17;;;;;;;21.92;47.79;99318.13;4369470;32;34113;-61
2023/06/30 04:14:36;;;;;;;3.90;2.15;;;;;;;21.97;47.96;99310.22;4373495;32;34332;-61
2023/06/30 04:17:04;;;;;;;6.50;1.85;;;;;;;22.00;47.86;99307.09;4363280;32;34317;-61
2023/06/30 04:19:32;;;;;;;12.45;2.55;;;;;;;22.00;47.84;99307.09;4370846;32;33471;-61
2023/06/30 04:21:59;;;;;;;4.05;1.95;;;;;;;22.04;47.78;99320.13;4370265;32;34956;-61
2023/06/30 04:24:31;;;;;;;4.72;2.45;;;;;;;22.07;47.86;99308.81;4373375;32;34229;-61
2023/06/30 04:26:59;;;;;;;3.12;1.62;;;;;;;22.18;47.58;99317.50;4370109;32;34034;-61
2023/06/30 04:29:27;;;;;;;5.87;2.40;;;;;;;22.22;47.36;99318.81;4371500;32;34711;-61
2023/06/30 04:31:55;;;;;;;2.97;1.40;;;;;;;22.27;47.38;99314.41;4371815;32;34821;-61
2023/06/30 04:34:22;;;;;;;3.42;2.00;;;;;;;22.34;47.34;99314.47;4370321;32;33835;-61
2023/06/30 04:36:50;;;;;;;3.78;2.45;;;;;;;22.42;47.36;99311.56;4369108;32;34113;-61
2023/06/30 04:39:19;;;;;;;3.30;2.00;;;;;;;22.55;47.42;99313.53;4372359;32;33800;-61
2023/06/30 04:41:47;;;;;;;2.60;1.52;;;;;;;22.63;47.20;99307.91;4374036;32;33446;-61
2023/06/30 04:44:14;;;;;;;3.25;1.77;;;;;;;22.74;47.28;99315.50;4368832;32;34949;-61
2023/06/30 04:46:42;;;;;;;3.55;1.85;;;;;;;22.90;47.02;99311.56;4373073;32;34454;-61
2023/06/30 04:49:10;;;;;;;4.07;1.90;;;;;;;22.99;46.88;99304.09;4370805;32;34715;-61
2023/06/30 04:51:37;;;;;;;8.27;2.33;;;;;;;23.09;46.65;99309.97;4366910;32;34142;-61
2023/06/30 04:54:05;;;;;;;4.43;1.77;;;;;;;23.15;46.50;99303.69;4370611;32;33964;-61
2023/06/30 04:56:32;;;;;;;3.28;1.80;;;;;;;23.22;46.56;99309.16;4367037;32;33259;-61
2023/06/30 04:59:00;;;;;;;4.12;1.90;;;;;;;23.29;46.32;99303.72;4368807;32;33569;-61
2023/06/30 05:01:28;;;;;;;4.40;2.05;;;;;;;23.35;46.41;99302.91;4365379;32;33662;-61
2023/06/30 05:03:56;;;;;;;10.65;2.67;;;;;;;23.44;46.27;99299.75;4373242;32;34035;-61
2023/06/30 05:06:24;;;;;;;5.75;2.35;;;;;;;23.46;46.39;99299.53;4369767;32;34781;-61
2023/06/30 05:08:52;;;;;;;4.05;2.17;;;;;;;23.62;45.95;99299.09;4372730;32;33605;-61
2023/06/30 05:11:19;;;;;;;5.53;1.95;;;;;;;23.78;46.07;99297.88;4366928;32;34716;-61
2023/06/30 05:13:47;;;;;;;4.35;2.05;;;;;;;23.90;46.13;99298.09;4372227;32;34109;-61
2023/06/30 05:16:15;;;;;;;5.03;2.15;;;;;;;24.02;46.55;99293.66;4372932;32;34407;-61
2023/06/30 05:18:42;;;;;;;5.45;2.47;;;;;;;24.11;46.76;99291.56;4372587;32;34503;-61
2023/06/30 05:21:10;;;;;;;4.10;2.28;;;;;;;24.07;46.70;99293.00;4371275;32;32312;-61
2023/06/30 05:23:38;;;;;;;5.65;2.50;;;;;;;24.27;46.79;99298.44;4373047;32;34567;-61
2023/06/30 05:26:06;;;;;;;6.10;3.00;;;;;;;24.17;46.81;99293.41;4373535;32;33535;-61
2023/06/30 05:28:36;;;;;;;6.03;2.00;;;;;;;24.34;46.60;99302.00;4373942;32;33800;-61
2023/06/30 05:31:04;;;;;;;4.37;2.12;;;;;;;24.44;45.82;99296.12;4375058;32;34405;-61
2023/06/30 05:33:32;;;;;;;5.93;3.65;;;;;;;24.68;46.35;99292.63;4373043;32;34069;-61
2023/06/30 05:35:59;;;;;;;4.25;2.50;;;;;;;24.76;44.73;99299.78;4374040;32;33383;-61
2023/06/30 05:38:28;;;;;;;5.80;2.50;;;;;;;24.89;45.14;99287.94;4373346;32;33730;-62
2023/06/30 05:40:56;;;;;;;4.70;2.58;;;;;;;25.14;44.49;99288.88;4370807;32;33768;-62
2023/06/30 05:43:24;;;;;;;4.78;2.33;;;;;;;25.22;44.87;99294.06;4372618;32;33784;-62
2023/06/30 05:45:52;;;;;;;6.53;2.60;;;;;;;25.17;44.52;99298.53;4366704;32;33340;-61
2023/06/30 05:48:20;;;;;;;6.20;2.67;;;;;;;25.35;44.94;99300.53;4370869;32;33733;-61
2023/06/30 05:50:47;;;;;;;5.43;2.58;;;;;;;25.30;44.26;99303.94;4375082;32;33919;-61
2023/06/30 05:53:15;;;;;;;5.85;3.05;;;;;;;25.23;44.40;99300.37;4361105;32;35229;-61
2023/06/30 05:55:42;;;;;;;4.85;2.67;;;;;;;25.37;44.93;99298.41;4373378;32;34803;-61
2023/06/30 05:58:10;;;;;;;4.25;2.30;;;;;;;25.17;44.63;99295.78;4373100;32;33765;-61
2023/06/30 06:00:38;;;;;;;7.53;2.65;;;;;;;25.06;45.30;99295.41;4372139;32;33934;-62
2023/06/30 06:03:06;;;;;;;5.80;2.97;;;;;;;24.99;45.60;99301.97;4369316;32;33833;-61
2023/06/30 06:05:34;;;;;;;9.98;3.00;;;;;;;25.35;45.22;99301.34;4369616;32;34190;-62
2023/06/30 06:08:01;;;;;;;6.15;2.92;;;;;;;25.63;44.56;99300.94;4366706;32;34019;-61
2023/06/30 06:10:29;;;;;;;6.20;2.55;;;;;;;25.52;45.24;99309.88;4364609;32;34970;-61
2023/06/30 06:12:56;;;;;;;4.20;2.45;;;;;;;25.69;44.17;99301.97;4369362;32;34650;-61
2023/06/30 06:15:24;;;;;;;3.97;2.55;;;;;;;25.72;44.30;99299.59;4367940;32;35506;-61
2023/06/30 06:17:52;;;;;;;6.10;2.78;;;;;;;25.92;44.38;99301.34;4370580;32;33431;-61
2023/06/30 06:20:19;;;;;;;6.12;2.62;;;;;;;25.97;44.36;99299.63;4365498;32;34927;-61
2023/06/30 06:22:47;;;;;;;7.45;2.83;;;;;;;26.07;44.88;99303.72;4369339;32;33697;-61
2023/06/30 06:25:15;;;;;;;3.72;2.47;;;;;;;26.07;43.50;99296.38;4366808;32;33253;-61
2023/06/30 06:27:42;;;;;;;9.05;3.12;;;;;;;26.06;43.92;99294.66;4368733;32;33876;-62
2023/06/30 06:30:10;;;;;;;10.05;2.72;;;;;;;26.02;44.87;99302.50;4361581;32;34067;-62
2023/06/30 06:32:38;;;;;;;6.60;2.67;;;;;;;26.10;44.43;99300.53;4372515;32;34108;-62
2023/06/30 06:35:06;;;;;;;4.12;2.17;;;;;;;26.03;43.64;99289.63;4370193;32;34152;-62
2023/06/30 06:37:33;;;;;;;6.28;2.62;;;;;;;26.04;43.92;99291.34;4370940;32;34063;-62
2023/06/30 06:40:01;;;;;;;3.75;2.17;;;;;;;26.17;43.81;99290.34;4384272;32;33839;-61
2023/06/30 06:42:28;;;;;;;9.45;2.97;;;;;;;26.20;43.45;99288.00;4371448;32;35652;-62
2023/06/30 06:44:56;;;;;;;4.85;2.35;;;;;;;25.90;44.12;99285.13;4367182;32;34521;-61
2023/06/30 06:48:02;;;;;;;7.72;2.58;;;;;;;26.30;43.01;99284.72;4371019;32;33546;-61
2023/06/30 06:50:29;;;;;;;4.78;2.10;;;;;;;26.57;40.96;99284.44;4366190;32;33926;-61
2023/06/30 06:52:57;;;;;;;4.43;2.03;;;;;;;26.60;41.26;99286.72;4370774;32;34061;-61
2023/06/30 06:55:25;;;;;;;4.57;2.67;;;;;;;26.76;40.40;99288.00;4364014;32;33103;-61
2023/06/30 06:57:53;;;;;;;12.55;2.45;;;;;;;26.50;40.67;99290.00;4356848;32;34579;-62
2023/06/30 07:00:21;;;;;;;3.92;2.00;;;;;;;26.64;40.40;99279.69;4363865;32;34964;-61
2023/06/30 07:02:49;;;;;;;3.97;2.22;;;;;;;26.95;40.39;99289.63;4371051;32;35175;-63
2023/06/30 07:05:16;;;;;;;11.00;2.40;;;;;;;26.76;40.81;99286.09;4372140;32;33747;-62
2023/06/30 07:07:44;;;;;;;6.03;2.22;;;;;;;26.75;40.06;99287.16;4367612;32;33671;-62
2023/06/30 07:10:12;;;;;;;4.72;2.22;;;;;;;27.03;38.61;99286.59;4356193;32;33624;-61
2023/06/30 07:12:39;;;;;;;4.75;2.28;;;;;;;26.76;38.66;99286.09;4363617;32;34424;-61
2023/06/30 07:15:07;;;;;;;7.68;2.65;;;;;;;26.67;39.24;99285.56;4364464;32;34466;-61
2023/06/30 07:17:35;;;;;;;3.83;2.15;;;;;;;26.94;38.54;99285.22;4364025;32;33999;-61
2023/06/30 07:20:03;;;;;;;3.95;2.53;;;;;;;26.81;38.93;99275.25;4364050;32;35218;-65
2023/06/30 07:22:32;;;;;;;4.15;1.90;;;;;;;26.49;38.73;99291.09;4373238;32;34100;-61
2023/06/30 07:25:02;;;;;;;4.05;2.22;;;;;;;26.95;38.79;99286.91;4372797;32;33467;-61
2023/06/30 07:27:30;;;;;;;5.25;2.22;;;;;;;26.39;38.64;99277.03;4366470;32;33446;-61
2023/06/30 07:29:58;;;;;;;4.62;1.95;;;;;;;26.42;38.10;99280.16;4366856;32;34952;-61
2023/06/30 07:32:25;;;;;;;5.40;2.55;;;;;;;26.78;36.50;99280.38;4368084;32;34871;-61
2023/06/30 07:34:53;;;;;;;4.50;2.25;;;;;;;26.82;37.74;99276.94;4367287;32;33760;-61
2023/06/30 07:37:21;;;;;;;5.25;2.17;;;;;;;27.02;38.13;99279.41;4371336;32;34614;-61
2023/06/30 07:39:48;;;;;;;7.47;2.40;;;;;;;26.84;37.59;99285.78;4367899;32;35597;-61
2023/06/30 07:42:16;;;;;;;5.20;2.47;;;;;;;26.44;37.66;99271.69;4368886;32;35160;-61
2023/06/30 07:44:43;;;;;;;4.30;2.00;;;;;;;26.67;38.87;99273.75;4365228;32;35349;-61
2023/06/30 07:47:11;;;;;;;7.82;2.22;;;;;;;26.41;37.92;99280.38;4368659;32;34673;-61
2023/06/30 07:49:39;;;;;;;3.67;2.10;;;;;;;26.53;38.30;99277.75;4374421;32;33900;-61
2023/06/30 07:52:07;;;;;;;3.85;2.00;;;;;;;26.27;37.70;99273.38;4360294;32;33799;-61
2023/06/30 07:54:35;;;;;;;5.68;2.45;;;;;;;26.60;38.13;99276.56;4375993;32;33672;-60
2023/06/30 07:57:02;;;;;;;5.70;2.33;;;;;;;26.75;38.15;99275.34;4366210;32;32342;-61
2023/06/30 07:59:30;;;;;;;4.55;2.05;;;;;;;26.70;37.55;99271.38;4364163;32;33924;-60
2023/06/30 08:01:58;;;;;;;5.18;2.60;;;;;;;27.16;36.87;99263.63;4366856;32;33918;-60
2023/06/30 08:04:25;;;;;;;4.65;2.55;;;;;;;26.82;38.81;99265.12;4368390;32;33437;-61
2023/06/30 08:06:54;;;;;;;5.65;3.08;;;;;;;27.08;38.97;99264.72;4369211;32;33630;-61
2023/06/30 08:09:22;;;;;;;4.75;2.62;;;;;;;27.24;38.30;99273.41;4369534;32;33864;-61
2023/06/30 08:11:49;;;;;;;6.30;2.95;;;;;;;27.33;38.33;99267.34;4370375;32;34117;-61
2023/06/30 08:14:17;;;;;;;6.22;2.92;;;;;;;27.47;37.79;99259.72;4370481;32;33726;-61
2023/06/30 08:16:45;;;;;;;4.00;2.47;;;;;;;27.33;38.56;99261.03;4372267;32;33753;-61
2023/06/30 08:19:12;;;;;;;4.55;2.37;;;;;;;27.39;38.65;99262.84;4373646;32;34031;-61
2023/06/30 08:22:01;;;;;;;3.87;1.92;;;;;;;27.69;37.19;99250.91;4370258;32;34116;-63
2023/06/30 08:24:29;;;;;;;3.40;1.83;;;;;;;27.75;36.07;99253.53;4368355;32;33072;-62
2023/06/30 08:26:57;;;;;;;6.05;1.95;;;;;;;27.82;34.23;99251.53;4368068;32;34962;-62
2023/06/30 08:29:24;;;;;;;5.65;1.83;;;;;;;27.04;35.30;99257.22;4370810;32;34537;-62
2023/06/30 08:31:54;;;;;;;4.28;2.12;;;;;;;27.45;34.91;99253.66;4367149;32;33843;-62
2023/06/30 08:34:25;;;;;;;6.72;1.92;;;;;;;27.04;36.17;99251.72;4362987;32;33420;-62
2023/06/30 08:36:54;;;;;;;4.20;2.00;;;;;;;27.01;36.78;99253.00;4367911;32;33334;-62
2023/06/30 08:39:22;;;;;;;6.18;1.98;;;;;;;26.89;36.56;99254.87;4365996;32;33855;-62
2023/06/30 08:41:53;;;;;;;3.58;1.87;;;;;;;27.72;35.38;99248.53;4366239;32;33656;-62
2023/06/30 08:44:25;;;;;;;5.62;2.17;;;;;;;27.35;35.36;99251.47;4352985;32;33221;-62
2023/06/30 08:46:53;;;;;;;5.37;2.30;;;;;;;27.34;35.32;99260.78;4363796;32;33701;-62
2023/06/30 08:49:22;;;;;;;4.97;2.05;;;;;;;27.57;34.63;99246.22;4374509;32;33734;-62
2023/06/30 08:51:58;;;;;;;4.53;2.58;;;;;;;28.04;34.16;99251.78;4370597;32;33556;-63
2023/06/30 08:54:28;;;;;;;5.32;1.80;;;;;;;27.60;34.75;99248.50;4373782;32;34500;-61
2023/06/30 08:56:56;;;;;;;5.87;1.95;;;;;;;27.43;35.06;99253.03;4375430;32;33915;-62
2023/06/30 08:59:25;;;;;;;3.47;1.85;;;;;;;27.14;34.50;99252.84;4358189;32;33692;-62
2023/06/30 09:01:54;;;;;;;6.05;2.45;;;;;;;27.64;34.12;99244.22;4371532;32;33549;-62
2023/06/30 09:04:22;;;;;;;4.65;2.55;;;;;;;28.04;33.54;99242.69;4328121;33;33459;-62
2023/06/30 09:06:51;;;;;;;4.45;2.12;;;;;;;27.89;34.92;99234.91;4324096;33;34928;-62
2023/06/30 09:09:30;;;;;;;5.60;2.20;;;;;;;28.29;33.33;99236.91;4330008;33;35082;-62
2023/06/30 09:11:57;;;;;;;4.20;2.15;;;;;;;28.52;33.38;99236.03;4324674;33;35141;-62
2023/06/30 09:14:31;;;;;;;3.37;1.70;;;;;;;28.50;33.65;99233.53;4309261;33;33701;-62
2023/06/30 09:17:00;;;;;;;4.45;1.83;;;;;;;28.30;32.56;99228.41;4316177;33;34444;-61
2023/06/30 09:19:28;;;;;;;3.08;1.87;;;;;;;28.47;32.96;99225.75;4328536;33;33660;-62
2023/06/30 09:21:56;;;;;;;4.03;1.73;;;;;;;28.91;32.87;99225.22;4318853;33;34699;-62
2023/06/30 09:24:25;;;;;;;6.75;1.92;;;;;;;28.48;35.05;99232.13;4322017;33;34621;-62
2023/06/30 09:26:53;;;;;;;4.32;1.80;;;;;;;28.65;33.99;99224.75;4323611;33;33625;-62
2023/06/30 09:29:24;;;;;;;4.03;2.10;;;;;;;28.87;33.15;99215.81;4329005;33;35127;-62
2023/06/30 09:31:52;;;;;;;3.50;1.98;;;;;;;28.96;32.54;99225.34;4325722;33;33601;-61
2023/06/30 09:34:20;;;;;;;5.65;2.03;;;;;;;29.23;32.33;99211.78;4324286;32;34351;-62
2023/06/30 09:36:52;;;;;;;4.90;1.70;;;;;;;28.25;33.24;99217.31;4372443;32;33607;-62
2023/06/30 09:39:21;;;;;;;4.72;2.05;;;;;;;28.78;32.07;99209.84;4362249;32;33822;-62
2023/06/30 09:41:49;;;;;;;4.05;2.05;;;;;;;28.70;32.16;99205.56;4367881;32;33938;-62
2023/06/30 09:44:20;;;;;;;3.58;1.75;;;;;;;29.28;31.28;99205.50;4374493;32;33716;-62
2023/06/30 09:46:50;;;;;;;3.53;1.83;;;;;;;29.39;32.02;99202.69;4374268;32;33534;-62
2023/06/30 09:49:24;;;;;;;6.50;1.80;;;;;;;29.56;32.42;99202.66;4371261;32;34213;-62
2023/06/30 09:51:53;;;;;;;;;;;;;;;29.94;31.86;99206.56;4369878;32;33745;-62
2023/06/30 09:54:23;;;;;;;3.58;2.05;;;;;;;29.77;31.39;99198.34;4373872;32;32781;-62
2023/06/30 09:57:10;;;;;;;6.70;2.22;;;;;;;29.84;31.71;99200.91;4358524;32;33541;-61
2023/06/30 09:59:38;;;;;;;4.87;2.08;;;;;;;29.48;32.74;99201.19;4372531;32;33850;-62
2023/06/30 10:02:06;;;;;;;3.95;2.15;;;;;;;29.50;32.03;99200.91;4369403;32;32391;-61
2023/06/30 10:04:33;;;;;;;4.07;2.28;;;;;;;29.68;32.08;99199.84;4371190;32;33063;-62
2023/06/30 10:07:05;;;;;;;9.85;2.15;;;;;;;29.87;32.71;99197.66;4370853;32;33804;-62
2023/06/30 10:09:33;;;;;;;4.82;1.98;;;;;;;29.66;33.29;99207.53;4353955;32;33379;-62
2023/06/30 10:12:01;;;;;;;4.22;1.98;;;;;;;29.75;31.61;99200.50;4357493;32;33452;-62
2023/06/30 10:14:32;;;;;;;2.60;1.65;;;;;;;29.91;32.48;99207.91;4356101;32;32921;-62
2023/06/30 10:17:02;;;;;;;6.32;1.75;;;;;;;29.82;32.24;99203.91;4365957;32;34236;-61
2023/06/30 10:19:29;;;;;;;4.72;2.20;;;;;;;30.37;31.81;99194.78;4372022;32;34515;-61
2023/06/30 10:21:58;;;;;;;4.95;2.00;;;;;;;30.44;31.86;99200.09;4368614;32;35197;-61
2023/06/30 10:24:27;;;;;;;4.35;2.47;;;;;;;29.92;31.79;99193.06;4367462;32;33164;-62
2023/06/30 10:26:55;;;;;;;4.80;2.00;;;;;;;29.85;31.67;99200.66;4372331;32;35142;-62
2023/06/30 10:29:22;;;;;;;4.22;1.90;;;;;;;29.77;32.25;99201.09;4361449;32;35517;-62
2023/06/30 10:31:50;;;;;;;5.82;1.87;;;;;;;30.00;31.71;99200.03;4357114;32;35124;-62
2023/06/30 10:34:18;;;;;;;4.57;1.70;;;;;;;30.27;30.45;99200.13;4374228;32;32858;-62
2023/06/30 10:36:46;;;;;;;4.15;2.05;;;;;;;29.95;31.21;99197.19;4377790;32;34016;-62
2023/06/30 10:39:14;;;;;;;3.80;2.75;;;;;;;30.13;30.53;99194.16;4340269;32;33773;-62
2023/06/30 10:41:48;;;;;;;5.37;1.80;;;;;;;30.58;29.61;99197.75;4328702;33;32740;-62
2023/06/30 10:44:20;;;;;;;2.22;1.48;;;;;;;30.93;28.22;99197.34;4342062;33;33326;-62
2023/06/30 10:46:48;;;;;;;3.72;1.73;;;;;;;30.69;28.73;99191.28;4342536;33;33583;-62
2023/06/30 10:49:31;;;;;;;5.07;2.03;;;;;;;30.48;29.18;99192.13;4339984;32;34774;-62
2023/06/30 10:52:04;;;;;;;4.10;1.70;;;;;;;30.98;28.91;99186.34;4339462;32;33981;-62
2023/06/30 10:54:46;;;;;;;3.33;1.80;;;;;;;31.46;27.82;99178.19;4340343;32;33331;-62
2023/06/30 10:57:19;;;;;;;3.25;1.48;;;;;;;31.59;27.85;99179.66;4338262;32;34691;-62
2023/06/30 10:59:49;;;;;;;3.20;1.50;;;;;;;31.26;28.38;99187.13;4332611;32;33853;-62
2023/06/30 11:02:17;;;;;;;3.85;1.55;;;;;;;31.14;28.71;99179.03;4336444;32;34755;-62
2023/06/30 11:04:46;;;;;;;3.58;1.60;;;;;;;30.94;28.36;99176.88;4340809;32;33470;-62
2023/06/30 11:07:18;;;;;;;3.50;1.75;;;;;;;31.10;28.44;99175.09;4336346;33;33541;-61
2023/06/30 11:09:48;;;;;;;4.25;1.70;;;;;;;31.23;28.08;99165.53;4351183;32;33813;-62
2023/06/30 11:12:26;;;;;;;6.43;1.92;;;;;;;30.67;28.83;99163.06;4374011;32;34121;-61
2023/06/30 11:15:01;;;;;;;5.18;1.83;;;;;;;31.33;28.93;99162.87;4368013;32;33439;-61
2023/06/30 11:17:48;;;;;;;;;;;;;;;31.36;27.91;99161.53;4365601;32;34912;-61
2023/06/30 11:20:16;;;;;;;5.78;1.92;;;;;;;31.77;27.23;99166.22;4367940;32;33861;-61
2023/06/30 11:23:04;;;;;;;4.50;1.70;;;;;;;31.24;27.11;99154.22;4374247;32;33922;-61
2023/06/30 11:25:33;;;;;;;4.03;1.80;;;;;;;31.14;27.70;99161.59;4367064;32;34990;-62
2023/06/30 11:28:02;;;;;;;6.30;2.12;;;;;;;31.42;27.90;99146.63;4365580;32;34699;-62
2023/06/30 11:30:37;;;;;;;3.83;2.03;;;;;;;31.29;28.15;99153.44;4373015;32;35732;-61
2023/06/30 11:33:06;;;;;;;4.47;2.30;;;;;;;31.25;29.01;99139.31;4367476;32;35604;-61
2023/06/30 11:35:35;;;;;;;4.45;1.83;;;;;;;30.46;28.84;99139.91;4370048;32;33515;-62
2023/06/30 11:38:03;;;;;;;3.05;1.42;;;;;;;31.21;28.96;99129.88;4371962;32;34869;-62
2023/06/30 11:40:31;;;;;;;6.62;1.98;;;;;;;31.57;28.68;99126.56;4369063;32;35168;-61
2023/06/30 11:42:59;;;;;;;3.22;1.60;;;;;;;30.70;29.11;99125.81;4370921;32;35511;-62